Terminal Aerodrome Forecast
Issued by NWS

Home | Current Version | Previous Version | Text Only | Print | Product List | Glossary On
Versions: 1 2 3 4 5 6 7 8 9 10 11 12 13 14 15
000
FTUS46 KSGX 291700
TAFSNA
TAF
KSNA 291731Z 2918/3018 VRB04KT P6SM SCT250
     FM291900 23008KT P6SM SCT200
     FM300200 VRB04KT P6SM FEW010 SCT200
     FM301000 VRB03KT P6SM BKN010
     FM301500 VRB05KT P6SM FEW015=

USA.gov is the U.S. government's official web portal to all federal, state and local government web resources and services.